sensor_id;sensor_type;location;lat;lon;timestamp;P1;durP1;ratioP1;P2;durP2;ratioP2
52432;SDS011;38352;53.244;6.594;2022-07-19T00:00:34;12.13;;;8.15;;
52432;SDS011;38352;53.244;6.594;2022-07-19T00:03:00;16.83;;;8.10;;
52432;SDS011;38352;53.244;6.594;2022-07-19T00:05:26;11.23;;;7.68;;
52432;SDS011;38352;53.244;6.594;2022-07-19T00:07:52;12.20;;;8.20;;
52432;SDS011;38352;53.244;6.594;2022-07-19T00:10:18;14.20;;;8.15;;
52432;SDS011;38352;53.244;6.594;2022-07-19T00:12:44;12.68;;;8.13;;
52432;SDS011;38352;53.244;6.594;2022-07-19T00:15:12;11.95;;;8.23;;
52432;SDS011;38352;53.244;6.594;2022-07-19T00:17:39;13.90;;;8.10;;
52432;SDS011;38352;53.244;6.594;2022-07-19T00:20:06;12.30;;;7.90;;
52432;SDS011;38352;53.244;6.594;2022-07-19T00:22:32;10.05;;;7.72;;
52432;SDS011;38352;53.244;6.594;2022-07-19T00:24:58;11.30;;;8.15;;
52432;SDS011;38352;53.244;6.594;2022-07-19T00:27:24;11.02;;;7.60;;
52432;SDS011;38352;53.244;6.594;2022-07-19T00:29:50;11.90;;;7.97;;
52432;SDS011;38352;53.244;6.594;2022-07-19T00:32:17;12.50;;;8.25;;
52432;SDS011;38352;53.244;6.594;2022-07-19T00:34:43;14.18;;;8.18;;
52432;SDS011;38352;53.244;6.594;2022-07-19T00:37:09;12.02;;;8.00;;
52432;SDS011;38352;53.244;6.594;2022-07-19T00:39:35;13.30;;;8.50;;
52432;SDS011;38352;53.244;6.594;2022-07-19T00:42:02;12.52;;;8.95;;
52432;SDS011;38352;53.244;6.594;2022-07-19T00:44:29;11.13;;;8.05;;
52432;SDS011;38352;53.244;6.594;2022-07-19T00:46:55;12.30;;;8.40;;
52432;SDS011;38352;53.244;6.594;2022-07-19T00:49:22;14.30;;;8.35;;
52432;SDS011;38352;53.244;6.594;2022-07-19T00:51:48;13.18;;;7.80;;
52432;SDS011;38352;53.244;6.594;2022-07-19T00:54:18;18.05;;;8.75;;
52432;SDS011;38352;53.244;6.594;2022-07-19T00:56:45;11.60;;;8.40;;
52432;SDS011;38352;53.244;6.594;2022-07-19T00:59:13;12.88;;;8.80;;
52432;SDS011;38352;53.244;6.594;2022-07-19T01:01:39;11.75;;;8.25;;
52432;SDS011;38352;53.244;6.594;2022-07-19T01:04:06;12.27;;;8.27;;
52432;SDS011;38352;53.244;6.594;2022-07-19T01:06:32;11.63;;;8.15;;
52432;SDS011;38352;53.244;6.594;2022-07-19T01:08:58;10.57;;;7.95;;
52432;SDS011;38352;53.244;6.594;2022-07-19T01:11:24;13.25;;;8.75;;
52432;SDS011;38352;53.244;6.594;2022-07-19T01:13:51;13.18;;;8.52;;
52432;SDS011;38352;53.244;6.594;2022-07-19T01:16:17;9.90;;;7.78;;
52432;SDS011;38352;53.244;6.594;2022-07-19T01:18:43;12.07;;;8.48;;
52432;SDS011;38352;53.244;6.594;2022-07-19T01:21:16;13.70;;;9.63;;
52432;SDS011;38352;53.244;6.594;2022-07-19T01:23:42;17.17;;;10.03;;
52432;SDS011;38352;53.244;6.594;2022-07-19T01:26:08;14.63;;;10.05;;
52432;SDS011;38352;53.244;6.594;2022-07-19T01:28:34;14.10;;;9.77;;
52432;SDS011;38352;53.244;6.594;2022-07-19T01:31:00;13.15;;;10.05;;
52432;SDS011;38352;53.244;6.594;2022-07-19T01:33:26;12.77;;;9.98;;
52432;SDS011;38352;53.244;6.594;2022-07-19T01:35:52;14.70;;;10.50;;
52432;SDS011;38352;53.244;6.594;2022-07-19T01:38:18;17.13;;;10.77;;
52432;SDS011;38352;53.244;6.594;2022-07-19T01:40:44;14.70;;;10.45;;
52432;SDS011;38352;53.244;6.594;2022-07-19T01:43:10;13.48;;;9.75;;
52432;SDS011;38352;53.244;6.594;2022-07-19T01:45:37;15.38;;;10.43;;
52432;SDS011;38352;53.244;6.594;2022-07-19T01:48:03;14.25;;;10.02;;
52432;SDS011;38352;53.244;6.594;2022-07-19T01:50:29;13.93;;;10.10;;
52432;SDS011;38352;53.244;6.594;2022-07-19T01:52:55;14.13;;;10.45;;
52432;SDS011;38352;53.244;6.594;2022-07-19T01:55:21;14.02;;;10.30;;
52432;SDS011;38352;53.244;6.594;2022-07-19T01:57:47;18.13;;;9.93;;
52432;SDS011;38352;53.244;6.594;2022-07-19T02:00:14;15.75;;;10.15;;
52432;SDS011;38352;53.244;6.594;2022-07-19T02:02:40;13.68;;;10.13;;
52432;SDS011;38352;53.244;6.594;2022-07-19T02:05:06;14.20;;;10.18;;
52432;SDS011;38352;53.244;6.594;2022-07-19T02:07:32;13.25;;;9.90;;
52432;SDS011;38352;53.244;6.594;2022-07-19T02:09:58;14.57;;;10.52;;
52432;SDS011;38352;53.244;6.594;2022-07-19T02:12:24;13.65;;;9.82;;
52432;SDS011;38352;53.244;6.594;2022-07-19T02:14:50;16.80;;;10.02;;
52432;SDS011;38352;53.244;6.594;2022-07-19T02:17:17;15.60;;;10.30;;
52432;SDS011;38352;53.244;6.594;2022-07-19T02:19:43;15.35;;;10.68;;
52432;SDS011;38352;53.244;6.594;2022-07-19T02:22:09;15.65;;;10.35;;
52432;SDS011;38352;53.244;6.594;2022-07-19T02:24:35;13.23;;;10.02;;
52432;SDS011;38352;53.244;6.594;2022-07-19T02:27:01;15.63;;;9.82;;
52432;SDS011;38352;53.244;6.594;2022-07-19T02:29:27;14.05;;;10.18;;
52432;SDS011;38352;53.244;6.594;2022-07-19T02:31:53;15.43;;;10.20;;
52432;SDS011;38352;53.244;6.594;2022-07-19T02:34:19;15.55;;;10.00;;
52432;SDS011;38352;53.244;6.594;2022-07-19T02:36:45;15.75;;;10.48;;
52432;SDS011;38352;53.244;6.594;2022-07-19T02:39:11;15.50;;;10.00;;
52432;SDS011;38352;53.244;6.594;2022-07-19T02:41:37;13.73;;;10.93;;
52432;SDS011;38352;53.244;6.594;2022-07-19T02:44:03;13.35;;;10.40;;
52432;SDS011;38352;53.244;6.594;2022-07-19T02:46:29;16.00;;;9.95;;
52432;SDS011;38352;53.244;6.594;2022-07-19T02:48:56;13.25;;;10.10;;
52432;SDS011;38352;53.244;6.594;2022-07-19T02:51:22;13.88;;;9.75;;
52432;SDS011;38352;53.244;6.594;2022-07-19T02:53:48;14.73;;;10.60;;
52432;SDS011;38352;53.244;6.594;2022-07-19T02:56:14;15.88;;;9.25;;
52432;SDS011;38352;53.244;6.594;2022-07-19T02:58:40;14.65;;;10.27;;
52432;SDS011;38352;53.244;6.594;2022-07-19T03:01:06;14.00;;;9.52;;
52432;SDS011;38352;53.244;6.594;2022-07-19T03:03:32;13.43;;;9.90;;
52432;SDS011;38352;53.244;6.594;2022-07-19T03:06:13;14.48;;;10.00;;
52432;SDS011;38352;53.244;6.594;2022-07-19T03:08:39;14.73;;;10.05;;
52432;SDS011;38352;53.244;6.594;2022-07-19T03:11:05;13.18;;;8.30;;
52432;SDS011;38352;53.244;6.594;2022-07-19T03:13:32;13.18;;;9.80;;
52432;SDS011;38352;53.244;6.594;2022-07-19T03:15:58;12.43;;;9.55;;
52432;SDS011;38352;53.244;6.594;2022-07-19T03:18:24;14.65;;;9.65;;
52432;SDS011;38352;53.244;6.594;2022-07-19T03:20:50;15.77;;;9.35;;
52432;SDS011;38352;53.244;6.594;2022-07-19T03:23:16;14.18;;;9.88;;
52432;SDS011;38352;53.244;6.594;2022-07-19T03:25:42;13.45;;;9.40;;
52432;SDS011;38352;53.244;6.594;2022-07-19T03:28:08;11.35;;;9.23;;
52432;SDS011;38352;53.244;6.594;2022-07-19T03:30:34;12.27;;;9.50;;
52432;SDS011;38352;53.244;6.594;2022-07-19T03:33:00;16.83;;;9.80;;
52432;SDS011;38352;53.244;6.594;2022-07-19T03:35:27;12.60;;;9.02;;
52432;SDS011;38352;53.244;6.594;2022-07-19T03:37:53;14.48;;;9.30;;
52432;SDS011;38352;53.244;6.594;2022-07-19T03:40:19;10.98;;;8.55;;
52432;SDS011;38352;53.244;6.594;2022-07-19T03:42:45;18.08;;;9.93;;
52432;SDS011;38352;53.244;6.594;2022-07-19T03:45:11;13.68;;;9.45;;
52432;SDS011;38352;53.244;6.594;2022-07-19T03:47:37;15.27;;;10.52;;
52432;SDS011;38352;53.244;6.594;2022-07-19T03:50:03;12.93;;;8.80;;
52432;SDS011;38352;53.244;6.594;2022-07-19T03:52:30;15.15;;;9.70;;
52432;SDS011;38352;53.244;6.594;2022-07-19T03:54:56;15.30;;;9.75;;
52432;SDS011;38352;53.244;6.594;2022-07-19T03:57:22;13.52;;;10.48;;
52432;SDS011;38352;53.244;6.594;2022-07-19T03:59:48;13.95;;;10.10;;
52432;SDS011;38352;53.244;6.594;2022-07-19T04:02:14;15.23;;;9.52;;
52432;SDS011;38352;53.244;6.594;2022-07-19T04:04:40;13.15;;;10.18;;
52432;SDS011;38352;53.244;6.594;2022-07-19T04:07:06;13.98;;;10.20;;
52432;SDS011;38352;53.244;6.594;2022-07-19T04:09:32;13.80;;;9.18;;
52432;SDS011;38352;53.244;6.594;2022-07-19T04:11:58;11.70;;;9.65;;
52432;SDS011;38352;53.244;6.594;2022-07-19T04:14:24;14.60;;;9.73;;
52432;SDS011;38352;53.244;6.594;2022-07-19T04:16:50;14.75;;;10.40;;
52432;SDS011;38352;53.244;6.594;2022-07-19T04:19:16;13.93;;;10.13;;
52432;SDS011;38352;53.244;6.594;2022-07-19T04:21:42;13.90;;;9.45;;
52432;SDS011;38352;53.244;6.594;2022-07-19T04:24:09;13.07;;;9.18;;
52432;SDS011;38352;53.244;6.594;2022-07-19T04:26:35;13.88;;;9.88;;
52432;SDS011;38352;53.244;6.594;2022-07-19T04:29:01;12.73;;;9.77;;
52432;SDS011;38352;53.244;6.594;2022-07-19T04:31:27;13.75;;;9.85;;
52432;SDS011;38352;53.244;6.594;2022-07-19T04:33:53;12.95;;;9.18;;
52432;SDS011;38352;53.244;6.594;2022-07-19T04:36:19;13.70;;;9.80;;
52432;SDS011;38352;53.244;6.594;2022-07-19T04:38:45;14.05;;;9.43;;
52432;SDS011;38352;53.244;6.594;2022-07-19T04:41:11;12.75;;;9.30;;
52432;SDS011;38352;53.244;6.594;2022-07-19T04:43:37;15.18;;;9.07;;
52432;SDS011;38352;53.244;6.594;2022-07-19T04:46:03;13.63;;;8.93;;
52432;SDS011;38352;53.244;6.594;2022-07-19T04:48:29;14.27;;;9.73;;
52432;SDS011;38352;53.244;6.594;2022-07-19T04:50:55;13.90;;;9.40;;
52432;SDS011;38352;53.244;6.594;2022-07-19T04:53:21;15.50;;;10.00;;
52432;SDS011;38352;53.244;6.594;2022-07-19T04:55:47;16.48;;;10.45;;
52432;SDS011;38352;53.244;6.594;2022-07-19T04:58:13;15.18;;;10.57;;
52432;SDS011;38352;53.244;6.594;2022-07-19T05:00:40;17.17;;;10.30;;
52432;SDS011;38352;53.244;6.594;2022-07-19T05:03:06;17.92;;;10.00;;
52432;SDS011;38352;53.244;6.594;2022-07-19T05:05:32;13.90;;;9.20;;
52432;SDS011;38352;53.244;6.594;2022-07-19T05:07:58;12.98;;;9.70;;
52432;SDS011;38352;53.244;6.594;2022-07-19T05:10:24;16.23;;;10.45;;
52432;SDS011;38352;53.244;6.594;2022-07-19T05:12:50;15.73;;;10.27;;
52432;SDS011;38352;53.244;6.594;2022-07-19T05:15:16;13.85;;;9.98;;
52432;SDS011;38352;53.244;6.594;2022-07-19T05:17:42;19.88;;;10.73;;
52432;SDS011;38352;53.244;6.594;2022-07-19T05:20:09;15.20;;;10.15;;
52432;SDS011;38352;53.244;6.594;2022-07-19T05:22:35;15.57;;;9.68;;
52432;SDS011;38352;53.244;6.594;2022-07-19T05:25:01;14.43;;;9.20;;
52432;SDS011;38352;53.244;6.594;2022-07-19T05:27:28;15.55;;;9.68;;
52432;SDS011;38352;53.244;6.594;2022-07-19T05:29:54;15.90;;;10.43;;
52432;SDS011;38352;53.244;6.594;2022-07-19T05:32:20;12.90;;;10.02;;
52432;SDS011;38352;53.244;6.594;2022-07-19T05:34:46;16.05;;;10.35;;
52432;SDS011;38352;53.244;6.594;2022-07-19T05:37:12;15.02;;;9.85;;
52432;SDS011;38352;53.244;6.594;2022-07-19T05:39:38;15.82;;;10.25;;
52432;SDS011;38352;53.244;6.594;2022-07-19T05:42:04;15.00;;;9.50;;
52432;SDS011;38352;53.244;6.594;2022-07-19T05:44:30;16.40;;;9.75;;
52432;SDS011;38352;53.244;6.594;2022-07-19T05:46:56;15.32;;;9.63;;
52432;SDS011;38352;53.244;6.594;2022-07-19T05:49:22;17.58;;;9.13;;
52432;SDS011;38352;53.244;6.594;2022-07-19T05:51:48;16.05;;;9.43;;
52432;SDS011;38352;53.244;6.594;2022-07-19T05:54:14;14.90;;;9.38;;
52432;SDS011;38352;53.244;6.594;2022-07-19T05:56:42;16.30;;;9.82;;
52432;SDS011;38352;53.244;6.594;2022-07-19T05:59:08;17.42;;;8.65;;
52432;SDS011;38352;53.244;6.594;2022-07-19T06:01:34;15.85;;;8.70;;
52432;SDS011;38352;53.244;6.594;2022-07-19T06:04:00;15.07;;;8.38;;
52432;SDS011;38352;53.244;6.594;2022-07-19T06:06:27;17.92;;;8.30;;
52432;SDS011;38352;53.244;6.594;2022-07-19T06:08:54;15.52;;;7.55;;
52432;SDS011;38352;53.244;6.594;2022-07-19T06:11:21;17.85;;;7.97;;
52432;SDS011;38352;53.244;6.594;2022-07-19T06:13:48;12.65;;;7.43;;
52432;SDS011;38352;53.244;6.594;2022-07-19T06:16:14;15.73;;;8.40;;
52432;SDS011;38352;53.244;6.594;2022-07-19T06:18:41;17.08;;;8.35;;
52432;SDS011;38352;53.244;6.594;2022-07-19T06:21:13;18.00;;;8.10;;
52432;SDS011;38352;53.244;6.594;2022-07-19T06:23:40;16.17;;;7.90;;
52432;SDS011;38352;53.244;6.594;2022-07-19T06:26:06;22.35;;;7.85;;
52432;SDS011;38352;53.244;6.594;2022-07-19T06:28:33;16.38;;;7.43;;
52432;SDS011;38352;53.244;6.594;2022-07-19T06:30:59;17.52;;;7.07;;
52432;SDS011;38352;53.244;6.594;2022-07-19T06:33:26;15.48;;;7.15;;
52432;SDS011;38352;53.244;6.594;2022-07-19T06:35:52;25.73;;;8.32;;
52432;SDS011;38352;53.244;6.594;2022-07-19T06:38:18;24.55;;;7.25;;
52432;SDS011;38352;53.244;6.594;2022-07-19T06:40:44;17.77;;;7.28;;
52432;SDS011;38352;53.244;6.594;2022-07-19T06:43:10;15.23;;;6.63;;
52432;SDS011;38352;53.244;6.594;2022-07-19T06:45:36;14.88;;;7.30;;
52432;SDS011;38352;53.244;6.594;2022-07-19T06:48:03;16.52;;;6.32;;
52432;SDS011;38352;53.244;6.594;2022-07-19T06:50:29;13.00;;;7.15;;
52432;SDS011;38352;53.244;6.594;2022-07-19T06:52:55;12.45;;;6.70;;
52432;SDS011;38352;53.244;6.594;2022-07-19T06:55:21;12.23;;;6.00;;
52432;SDS011;38352;53.244;6.594;2022-07-19T06:57:47;12.93;;;6.95;;
52432;SDS011;38352;53.244;6.594;2022-07-19T07:00:13;12.15;;;5.85;;
52432;SDS011;38352;53.244;6.594;2022-07-19T07:02:40;10.85;;;6.38;;
52432;SDS011;38352;53.244;6.594;2022-07-19T07:05:07;12.93;;;5.68;;
52432;SDS011;38352;53.244;6.594;2022-07-19T07:07:33;10.95;;;6.03;;
52432;SDS011;38352;53.244;6.594;2022-07-19T07:09:59;10.57;;;6.40;;
52432;SDS011;38352;53.244;6.594;2022-07-19T07:12:27;9.73;;;6.00;;
52432;SDS011;38352;53.244;6.594;2022-07-19T07:14:53;13.13;;;6.22;;
52432;SDS011;38352;53.244;6.594;2022-07-19T07:17:19;9.43;;;5.55;;
52432;SDS011;38352;53.244;6.594;2022-07-19T07:19:45;11.27;;;5.60;;
52432;SDS011;38352;53.244;6.594;2022-07-19T07:22:12;10.77;;;6.25;;
52432;SDS011;38352;53.244;6.594;2022-07-19T07:24:38;9.63;;;5.47;;
52432;SDS011;38352;53.244;6.594;2022-07-19T07:27:04;13.07;;;5.80;;
52432;SDS011;38352;53.244;6.594;2022-07-19T07:29:30;10.30;;;5.47;;
52432;SDS011;38352;53.244;6.594;2022-07-19T07:31:56;9.68;;;5.43;;
52432;SDS011;38352;53.244;6.594;2022-07-19T07:34:22;7.82;;;5.07;;
52432;SDS011;38352;53.244;6.594;2022-07-19T07:36:48;10.60;;;5.20;;
52432;SDS011;38352;53.244;6.594;2022-07-19T07:39:14;8.50;;;6.05;;
52432;SDS011;38352;53.244;6.594;2022-07-19T07:41:40;11.82;;;5.72;;
52432;SDS011;38352;53.244;6.594;2022-07-19T07:44:06;10.80;;;5.28;;
52432;SDS011;38352;53.244;6.594;2022-07-19T07:46:32;8.13;;;4.63;;
52432;SDS011;38352;53.244;6.594;2022-07-19T07:48:58;9.75;;;5.32;;
52432;SDS011;38352;53.244;6.594;2022-07-19T07:51:25;7.43;;;4.90;;
52432;SDS011;38352;53.244;6.594;2022-07-19T07:53:51;7.57;;;4.88;;
52432;SDS011;38352;53.244;6.594;2022-07-19T07:56:17;10.07;;;5.53;;
52432;SDS011;38352;53.244;6.594;2022-07-19T07:58:43;10.07;;;5.20;;
52432;SDS011;38352;53.244;6.594;2022-07-19T08:01:09;9.68;;;5.38;;
52432;SDS011;38352;53.244;6.594;2022-07-19T08:03:35;10.10;;;5.00;;
52432;SDS011;38352;53.244;6.594;2022-07-19T08:06:02;9.85;;;5.00;;
52432;SDS011;38352;53.244;6.594;2022-07-19T08:08:28;10.23;;;5.38;;
52432;SDS011;38352;53.244;6.594;2022-07-19T08:10:54;7.22;;;5.22;;
52432;SDS011;38352;53.244;6.594;2022-07-19T08:13:20;9.32;;;5.25;;
52432;SDS011;38352;53.244;6.594;2022-07-19T08:15:47;12.25;;;5.72;;
52432;SDS011;38352;53.244;6.594;2022-07-19T08:18:13;9.57;;;4.93;;
52432;SDS011;38352;53.244;6.594;2022-07-19T08:20:39;10.60;;;5.13;;
52432;SDS011;38352;53.244;6.594;2022-07-19T08:23:05;9.32;;;4.97;;
52432;SDS011;38352;53.244;6.594;2022-07-19T08:25:31;10.05;;;4.53;;
52432;SDS011;38352;53.244;6.594;2022-07-19T08:27:59;10.85;;;5.00;;
52432;SDS011;38352;53.244;6.594;2022-07-19T08:30:25;15.00;;;5.30;;
52432;SDS011;38352;53.244;6.594;2022-07-19T08:32:51;11.70;;;5.22;;
52432;SDS011;38352;53.244;6.594;2022-07-19T08:35:17;7.53;;;4.47;;
52432;SDS011;38352;53.244;6.594;2022-07-19T08:37:43;9.38;;;4.60;;
52432;SDS011;38352;53.244;6.594;2022-07-19T08:40:10;11.63;;;5.07;;
52432;SDS011;38352;53.244;6.594;2022-07-19T08:42:36;8.50;;;4.47;;
52432;SDS011;38352;53.244;6.594;2022-07-19T08:45:06;12.20;;;4.57;;
52432;SDS011;38352;53.244;6.594;2022-07-19T08:47:33;8.68;;;4.43;;
52432;SDS011;38352;53.244;6.594;2022-07-19T08:49:59;10.18;;;4.40;;
52432;SDS011;38352;53.244;6.594;2022-07-19T08:52:26;10.57;;;4.40;;
52432;SDS011;38352;53.244;6.594;2022-07-19T08:54:53;7.00;;;4.15;;
52432;SDS011;38352;53.244;6.594;2022-07-19T08:57:19;8.90;;;4.18;;
52432;SDS011;38352;53.244;6.594;2022-07-19T09:00:04;9.18;;;4.40;;
52432;SDS011;38352;53.244;6.594;2022-07-19T09:02:31;8.20;;;4.15;;
52432;SDS011;38352;53.244;6.594;2022-07-19T09:05:01;8.13;;;3.65;;
52432;SDS011;38352;53.244;6.594;2022-07-19T09:07:28;8.90;;;4.07;;
52432;SDS011;38352;53.244;6.594;2022-07-19T09:10:13;8.98;;;4.40;;
52432;SDS011;38352;53.244;6.594;2022-07-19T09:15:35;8.65;;;4.22;;
52432;SDS011;38352;53.244;6.594;2022-07-19T09:18:05;8.60;;;3.60;;
52432;SDS011;38352;53.244;6.594;2022-07-19T09:20:32;9.48;;;3.83;;
52432;SDS011;38352;53.244;6.594;2022-07-19T09:22:58;7.63;;;3.97;;
52432;SDS011;38352;53.244;6.594;2022-07-19T09:25:39;6.80;;;3.63;;
52432;SDS011;38352;53.244;6.594;2022-07-19T09:28:07;5.68;;;3.95;;
52432;SDS011;38352;53.244;6.594;2022-07-19T09:30:38;7.43;;;3.83;;
52432;SDS011;38352;53.244;6.594;2022-07-19T09:33:05;8.52;;;4.05;;
52432;SDS011;38352;53.244;6.594;2022-07-19T09:35:35;8.60;;;3.72;;
52432;SDS011;38352;53.244;6.594;2022-07-19T09:38:22;10.85;;;3.85;;
52432;SDS011;38352;53.244;6.594;2022-07-19T09:40:48;11.85;;;4.47;;
52432;SDS011;38352;53.244;6.594;2022-07-19T09:43:15;13.93;;;4.30;;
52432;SDS011;38352;53.244;6.594;2022-07-19T09:45:41;103.25;;;12.63;;
52432;SDS011;38352;53.244;6.594;2022-07-19T09:48:07;11.52;;;4.15;;
52432;SDS011;38352;53.244;6.594;2022-07-19T09:50:34;10.25;;;4.03;;
52432;SDS011;38352;53.244;6.594;2022-07-19T09:53:04;6.30;;;3.80;;
52432;SDS011;38352;53.244;6.594;2022-07-19T09:55:30;5.95;;;3.40;;
52432;SDS011;38352;53.244;6.594;2022-07-19T09:57:58;12.63;;;3.88;;
52432;SDS011;38352;53.244;6.594;2022-07-19T10:00:25;13.57;;;4.30;;
52432;SDS011;38352;53.244;6.594;2022-07-19T10:02:56;6.63;;;3.60;;
52432;SDS011;38352;53.244;6.594;2022-07-19T10:05:23;14.32;;;4.07;;
52432;SDS011;38352;53.244;6.594;2022-07-19T10:07:50;7.15;;;3.33;;
52432;SDS011;38352;53.244;6.594;2022-07-19T10:10:18;10.68;;;3.65;;
52432;SDS011;38352;53.244;6.594;2022-07-19T10:12:45;10.68;;;3.63;;
52432;SDS011;38352;53.244;6.594;2022-07-19T10:15:12;11.95;;;3.88;;
52432;SDS011;38352;53.244;6.594;2022-07-19T10:18:00;7.30;;;3.38;;
52432;SDS011;38352;53.244;6.594;2022-07-19T10:20:28;8.18;;;3.22;;
52432;SDS011;38352;53.244;6.594;2022-07-19T10:23:01;7.88;;;3.38;;
52432;SDS011;38352;53.244;6.594;2022-07-19T10:25:41;7.97;;;4.13;;
52432;SDS011;38352;53.244;6.594;2022-07-19T10:30:53;6.95;;;3.90;;
52432;SDS011;38352;53.244;6.594;2022-07-19T10:33:33;7.68;;;3.65;;
52432;SDS011;38352;53.244;6.594;2022-07-19T10:41:29;7.57;;;3.40;;
52432;SDS011;38352;53.244;6.594;2022-07-19T10:44:07;6.75;;;3.58;;
52432;SDS011;38352;53.244;6.594;2022-07-19T10:46:34;7.40;;;3.25;;
52432;SDS011;38352;53.244;6.594;2022-07-19T10:49:00;8.48;;;3.30;;
52432;SDS011;38352;53.244;6.594;2022-07-19T10:51:30;7.22;;;2.90;;
52432;SDS011;38352;53.244;6.594;2022-07-19T10:54:06;5.78;;;2.50;;
52432;SDS011;38352;53.244;6.594;2022-07-19T10:59:06;6.82;;;2.70;;
52432;SDS011;38352;53.244;6.594;2022-07-19T11:01:33;7.25;;;3.28;;
52432;SDS011;38352;53.244;6.594;2022-07-19T11:06:44;4.95;;;2.95;;
52432;SDS011;38352;53.244;6.594;2022-07-19T11:09:10;6.93;;;3.42;;
52432;SDS011;38352;53.244;6.594;2022-07-19T11:11:36;4.63;;;2.80;;
52432;SDS011;38352;53.244;6.594;2022-07-19T11:14:03;6.05;;;2.83;;
52432;SDS011;38352;53.244;6.594;2022-07-19T11:16:30;6.55;;;3.20;;
52432;SDS011;38352;53.244;6.594;2022-07-19T11:19:03;4.93;;;3.08;;
52432;SDS011;38352;53.244;6.594;2022-07-19T11:21:30;5.45;;;2.97;;
52432;SDS011;38352;53.244;6.594;2022-07-19T11:23:57;5.05;;;2.88;;
52432;SDS011;38352;53.244;6.594;2022-07-19T11:26:23;5.40;;;3.35;;
52432;SDS011;38352;53.244;6.594;2022-07-19T11:28:50;6.57;;;3.10;;
52432;SDS011;38352;53.244;6.594;2022-07-19T11:31:25;5.70;;;2.97;;
52432;SDS011;38352;53.244;6.594;2022-07-19T11:33:52;8.40;;;3.17;;
52432;SDS011;38352;53.244;6.594;2022-07-19T11:36:21;8.25;;;3.50;;
52432;SDS011;38352;53.244;6.594;2022-07-19T11:38:48;6.63;;;3.20;;
52432;SDS011;38352;53.244;6.594;2022-07-19T11:41:15;7.15;;;3.08;;
52432;SDS011;38352;53.244;6.594;2022-07-19T11:43:43;7.88;;;3.22;;
52432;SDS011;38352;53.244;6.594;2022-07-19T11:46:10;6.32;;;3.20;;
52432;SDS011;38352;53.244;6.594;2022-07-19T11:48:36;6.53;;;2.85;;
52432;SDS011;38352;53.244;6.594;2022-07-19T11:53:28;10.05;;;2.90;;
52432;SDS011;38352;53.244;6.594;2022-07-19T11:55:54;8.90;;;3.08;;
52432;SDS011;38352;53.244;6.594;2022-07-19T11:58:21;7.50;;;2.97;;
52432;SDS011;38352;53.244;6.594;2022-07-19T12:00:48;7.03;;;3.10;;
52432;SDS011;38352;53.244;6.594;2022-07-19T12:03:15;6.03;;;2.70;;
52432;SDS011;38352;53.244;6.594;2022-07-19T12:05:53;5.25;;;2.70;;
52432;SDS011;38352;53.244;6.594;2022-07-19T12:08:19;5.82;;;2.60;;
52432;SDS011;38352;53.244;6.594;2022-07-19T12:10:46;6.80;;;2.83;;
52432;SDS011;38352;53.244;6.594;2022-07-19T12:13:32;5.35;;;3.13;;
52432;SDS011;38352;53.244;6.594;2022-07-19T12:16:08;7.50;;;3.17;;
52432;SDS011;38352;53.244;6.594;2022-07-19T12:26:29;6.90;;;2.90;;
52432;SDS011;38352;53.244;6.594;2022-07-19T12:28:55;5.28;;;2.95;;
52432;SDS011;38352;53.244;6.594;2022-07-19T12:31:21;7.68;;;2.97;;
52432;SDS011;38352;53.244;6.594;2022-07-19T12:33:57;4.85;;;3.05;;
52432;SDS011;38352;53.244;6.594;2022-07-19T12:36:35;6.88;;;3.22;;
52432;SDS011;38352;53.244;6.594;2022-07-19T12:39:02;9.50;;;3.25;;
52432;SDS011;38352;53.244;6.594;2022-07-19T12:41:28;8.52;;;2.95;;
52432;SDS011;38352;53.244;6.594;2022-07-19T12:43:55;7.78;;;3.25;;
52432;SDS011;38352;53.244;6.594;2022-07-19T12:46:21;5.75;;;3.40;;
52432;SDS011;38352;53.244;6.594;2022-07-19T12:48:47;8.23;;;3.30;;
52432;SDS011;38352;53.244;6.594;2022-07-19T12:51:13;5.75;;;2.78;;
52432;SDS011;38352;53.244;6.594;2022-07-19T12:53:39;7.15;;;3.25;;
52432;SDS011;38352;53.244;6.594;2022-07-19T12:56:05;5.65;;;2.92;;
52432;SDS011;38352;53.244;6.594;2022-07-19T12:58:31;3.83;;;2.65;;
52432;SDS011;38352;53.244;6.594;2022-07-19T13:01:15;7.65;;;3.20;;
52432;SDS011;38352;53.244;6.594;2022-07-19T13:03:42;9.30;;;3.30;;
52432;SDS011;38352;53.244;6.594;2022-07-19T13:06:08;10.90;;;3.17;;
52432;SDS011;38352;53.244;6.594;2022-07-19T13:08:34;10.32;;;3.85;;
52432;SDS011;38352;53.244;6.594;2022-07-19T13:11:00;7.63;;;3.15;;
52432;SDS011;38352;53.244;6.594;2022-07-19T13:13:27;6.32;;;3.38;;
52432;SDS011;38352;53.244;6.594;2022-07-19T13:15:53;5.07;;;2.63;;
52432;SDS011;38352;53.244;6.594;2022-07-19T13:18:19;6.70;;;3.00;;
52432;SDS011;38352;53.244;6.594;2022-07-19T13:20:47;7.90;;;2.97;;
52432;SDS011;38352;53.244;6.594;2022-07-19T13:23:13;4.70;;;2.95;;
52432;SDS011;38352;53.244;6.594;2022-07-19T13:25:39;8.77;;;3.25;;
52432;SDS011;38352;53.244;6.594;2022-07-19T13:28:05;7.57;;;3.20;;
52432;SDS011;38352;53.244;6.594;2022-07-19T13:30:31;12.25;;;3.15;;
52432;SDS011;38352;53.244;6.594;2022-07-19T13:32:57;8.68;;;3.30;;
52432;SDS011;38352;53.244;6.594;2022-07-19T13:35:24;7.60;;;3.28;;
52432;SDS011;38352;53.244;6.594;2022-07-19T13:37:50;6.53;;;2.97;;
52432;SDS011;38352;53.244;6.594;2022-07-19T13:40:16;9.23;;;3.42;;
52432;SDS011;38352;53.244;6.594;2022-07-19T13:42:42;11.07;;;3.60;;
52432;SDS011;38352;53.244;6.594;2022-07-19T13:45:09;8.40;;;2.97;;
52432;SDS011;38352;53.244;6.594;2022-07-19T13:47:35;6.15;;;3.05;;
52432;SDS011;38352;53.244;6.594;2022-07-19T13:50:03;9.60;;;3.20;;
52432;SDS011;38352;53.244;6.594;2022-07-19T13:52:30;7.18;;;3.00;;
52432;SDS011;38352;53.244;6.594;2022-07-19T13:54:56;7.57;;;3.33;;
52432;SDS011;38352;53.244;6.594;2022-07-19T13:57:22;4.72;;;2.60;;
52432;SDS011;38352;53.244;6.594;2022-07-19T13:59:48;7.13;;;3.20;;
52432;SDS011;38352;53.244;6.594;2022-07-19T14:02:15;4.63;;;3.00;;
52432;SDS011;38352;53.244;6.594;2022-07-19T14:04:41;5.50;;;2.67;;
52432;SDS011;38352;53.244;6.594;2022-07-19T14:07:07;6.28;;;2.85;;
52432;SDS011;38352;53.244;6.594;2022-07-19T14:09:33;6.70;;;2.97;;
52432;SDS011;38352;53.244;6.594;2022-07-19T14:12:01;5.53;;;2.83;;
52432;SDS011;38352;53.244;6.594;2022-07-19T14:14:27;6.43;;;2.83;;
52432;SDS011;38352;53.244;6.594;2022-07-19T14:16:53;6.53;;;2.78;;
52432;SDS011;38352;53.244;6.594;2022-07-19T14:19:19;6.97;;;2.80;;
52432;SDS011;38352;53.244;6.594;2022-07-19T14:21:45;7.43;;;2.97;;
52432;SDS011;38352;53.244;6.594;2022-07-19T14:24:11;5.88;;;3.00;;
52432;SDS011;38352;53.244;6.594;2022-07-19T14:26:37;4.22;;;2.90;;
52432;SDS011;38352;53.244;6.594;2022-07-19T14:29:03;4.95;;;2.80;;
52432;SDS011;38352;53.244;6.594;2022-07-19T14:31:29;6.72;;;2.90;;
52432;SDS011;38352;53.244;6.594;2022-07-19T14:33:55;4.53;;;2.80;;
52432;SDS011;38352;53.244;6.594;2022-07-19T14:36:22;4.55;;;2.72;;
52432;SDS011;38352;53.244;6.594;2022-07-19T14:38:48;4.57;;;2.50;;
52432;SDS011;38352;53.244;6.594;2022-07-19T14:41:14;5.38;;;2.78;;
52432;SDS011;38352;53.244;6.594;2022-07-19T14:43:40;3.63;;;2.60;;
52432;SDS011;38352;53.244;6.594;2022-07-19T14:46:06;4.70;;;2.50;;
52432;SDS011;38352;53.244;6.594;2022-07-19T14:48:32;5.60;;;2.67;;
52432;SDS011;38352;53.244;6.594;2022-07-19T14:50:58;5.03;;;2.42;;
52432;SDS011;38352;53.244;6.594;2022-07-19T14:53:24;4.38;;;2.42;;
52432;SDS011;38352;53.244;6.594;2022-07-19T14:55:50;6.78;;;2.80;;
52432;SDS011;38352;53.244;6.594;2022-07-19T14:58:16;6.43;;;2.45;;
52432;SDS011;38352;53.244;6.594;2022-07-19T15:00:42;6.30;;;2.55;;
52432;SDS011;38352;53.244;6.594;2022-07-19T15:03:08;6.03;;;2.75;;